Time;durP1;ratioP1;P1;durP2;ratioP2;P2;SDS_P1;SDS_P2;PMS_P1;PMS_P2;Temp;Humidity;BMP_temperature;BMP_pressure;BME280_temperature;BME280_humidity;BME280_pressure;Samples;Min_cycle;Max_cycle;Signal;HPM_P1;HPM_P2
2021/08/15 00:00:08;;;;;;;9.67;6.13;;;;;;;19.86;100.00;100347.94;1726082;81;21105;-62
2021/08/15 00:02:37;;;;;;;7.27;5.27;;;;;;;19.87;100.00;100347.69;1726855;81;21055;-63
2021/08/15 00:05:05;;;;;;;8.07;5.60;;;;;;;19.87;100.00;100342.92;1726721;81;21057;-60
2021/08/15 00:07:31;;;;;;;7.47;4.33;;;;;;;19.85;100.00;100343.67;1727608;81;21117;-63
2021/08/15 00:09:58;;;;;;;7.03;4.23;;;;;;;19.83;100.00;100336.52;1727994;81;21060;-63
2021/08/15 00:12:24;;;;;;;5.93;3.80;;;;;;;19.83;100.00;100330.70;1727813;81;22348;-64
2021/08/15 00:14:51;;;;;;;4.67;3.20;;;;;;;19.84;100.00;100334.94;1727728;81;21523;-63
2021/08/15 00:17:18;;;;;;;4.33;2.53;;;;;;;19.85;100.00;100338.37;1726039;81;21587;-61
2021/08/15 00:19:46;;;;;;;3.40;2.50;;;;;;;19.85;100.00;100341.02;1727688;81;21623;-62
2021/08/15 00:22:13;;;;;;;3.60;2.67;;;;;;;19.84;100.00;100344.72;1727689;81;21531;-63
2021/08/15 00:24:40;;;;;;;4.20;2.37;;;;;;;19.81;100.00;100341.23;1725230;81;21148;-62
2021/08/15 00:27:06;;;;;;;3.50;2.67;;;;;;;19.82;100.00;100337.56;1726250;81;20912;-60
2021/08/15 00:29:33;;;;;;;3.57;1.90;;;;;;;19.82;100.00;100344.17;1727023;81;21022;-62
2021/08/15 00:32:01;;;;;;;3.43;2.27;;;;;;;19.80;100.00;100334.34;1728112;81;20951;-63
2021/08/15 00:34:29;;;;;;;4.13;2.63;;;;;;;19.78;100.00;100331.16;1728353;81;20927;-63
2021/08/15 00:36:58;;;;;;;3.80;2.70;;;;;;;19.76;100.00;100336.67;1727549;81;21055;-62
2021/08/15 00:39:25;;;;;;;4.07;2.97;;;;;;;19.75;100.00;100330.31;1729493;81;21501;-62
2021/08/15 00:41:52;;;;;;;4.93;2.70;;;;;;;19.72;100.00;100329.47;1725767;81;21081;-62
2021/08/15 00:44:19;;;;;;;3.53;2.40;;;;;;;19.71;100.00;100335.81;1724622;81;21011;-62
2021/08/15 00:46:45;;;;;;;3.83;2.57;;;;;;;19.68;100.00;100327.82;1717434;81;21085;-63
2021/08/15 00:49:11;;;;;;;5.33;2.53;;;;;;;19.66;100.00;100328.57;1720527;81;21857;-62
2021/08/15 00:51:38;;;;;;;3.57;2.40;;;;;;;19.65;100.00;100326.45;1721804;81;21073;-63
2021/08/15 00:54:06;;;;;;;3.13;2.30;;;;;;;19.66;100.00;100327.25;1725463;81;20974;-63
2021/08/15 00:56:33;;;;;;;3.63;2.27;;;;;;;19.65;100.00;100322.48;1727526;81;20951;-63
2021/08/15 00:59:04;;;;;;;6.93;2.63;;;;;;;19.65;100.00;100311.91;1720766;81;20955;-60
2021/08/15 01:01:34;;;;;;;4.03;2.57;;;;;;;19.65;100.00;100316.40;1724089;81;21192;-63
2021/08/15 01:04:04;;;;;;;4.40;2.40;;;;;;;19.64;100.00;100315.60;1724252;81;20977;-63
2021/08/15 01:06:33;;;;;;;6.70;2.70;;;;;;;19.66;100.00;100314.02;1715285;81;21520;-63
2021/08/15 01:09:04;;;;;;;3.90;2.60;;;;;;;19.66;100.00;100311.37;1713943;82;20944;-60
2021/08/15 01:11:34;;;;;;;3.67;2.23;;;;;;;19.65;100.00;100311.91;1717711;82;21270;-63
2021/08/15 01:14:06;;;;;;;3.80;2.57;;;;;;;19.65;100.00;100311.91;1715658;81;20928;-62
2021/08/15 01:16:40;;;;;;;4.50;2.27;;;;;;;19.63;100.00;100311.89;1715066;82;21450;-61
2021/08/15 01:19:09;;;;;;;3.60;2.17;;;;;;;19.61;100.00;100313.41;1716600;81;21090;-62
2021/08/15 01:21:42;;;;;;;3.13;2.20;;;;;;;19.60;100.00;100314.45;1718172;82;20949;-62
2021/08/15 01:24:09;;;;;;;4.33;2.13;;;;;;;19.58;100.00;100316.52;1716602;82;20959;-62
2021/08/15 01:26:36;;;;;;;3.80;2.33;;;;;;;19.56;100.00;100322.59;1714082;82;21137;-59
2021/08/15 01:29:03;;;;;;;3.53;2.13;;;;;;;19.55;100.00;100325.48;1714526;82;21288;-62
2021/08/15 01:31:29;;;;;;;4.07;2.33;;;;;;;19.53;100.00;100319.09;1714588;82;21606;-62
2021/08/15 01:33:56;;;;;;;3.80;2.03;;;;;;;19.54;100.00;100325.19;1714480;82;21031;-62
2021/08/15 01:36:22;;;;;;;3.47;2.10;;;;;;;19.52;100.00;100319.35;1715098;82;21045;-62
2021/08/15 01:38:50;;;;;;;3.47;2.00;;;;;;;19.52;100.00;100323.31;1713257;82;21125;-62
2021/08/15 01:41:17;;;;;;;4.03;2.30;;;;;;;19.52;100.00;100317.50;1714715;82;22153;-62
2021/08/15 01:43:58;;;;;;;3.00;2.10;;;;;;;19.53;100.00;100324.39;1714057;82;21059;-62
2021/08/15 01:46:33;;;;;;;3.30;2.08;;;;;;;19.53;100.00;100326.23;1714525;81;21078;-59
2021/08/15 01:49:01;;;;;;;3.50;2.20;;;;;;;19.51;100.00;100326.48;1713707;82;21369;-63
2021/08/15 01:51:28;;;;;;;4.27;2.03;;;;;;;19.46;100.00;100332.99;1716368;81;21197;-61
2021/08/15 01:53:56;;;;;;;3.30;2.30;;;;;;;19.51;100.00;100333.59;1714752;82;21001;-62
2021/08/15 01:56:24;;;;;;;4.73;2.53;;;;;;;19.48;100.00;100328.28;1714376;82;21020;-60
2021/08/15 01:58:51;;;;;;;3.43;2.20;;;;;;;19.46;100.00;100326.38;1715215;81;21022;-61
2021/08/15 02:01:19;;;;;;;4.30;2.70;;;;;;;19.48;100.00;100332.77;1714493;81;21118;-62
2021/08/15 02:03:46;;;;;;;3.33;2.23;;;;;;;19.45;100.00;100328.75;1714890;82;21144;-64
2021/08/15 02:06:13;;;;;;;5.50;2.60;;;;;;;19.39;100.00;100324.41;1714706;82;20956;-61
2021/08/15 02:08:39;;;;;;;3.37;2.33;;;;;;;19.37;100.00;100329.95;1713071;82;20972;-60
2021/08/15 02:11:07;;;;;;;6.40;3.27;;;;;;;19.38;100.00;100326.26;1714322;82;21450;-62
2021/08/15 02:13:33;;;;;;;5.33;2.90;;;;;;;19.40;100.00;100326.04;1714708;82;21525;-61
2021/08/15 02:16:01;;;;;;;3.33;2.33;;;;;;;19.39;100.00;100326.53;1715320;81;20884;-61
2021/08/15 02:18:28;;;;;;;4.53;2.73;;;;;;;19.40;100.00;100333.97;1714597;81;20947;-61
2021/08/15 02:20:56;;;;;;;3.83;2.67;;;;;;;19.39;100.00;100329.70;1714076;82;21139;-61
2021/08/15 02:23:22;;;;;;;3.50;2.20;;;;;;;19.38;100.00;100329.42;1715110;81;21058;-61
2021/08/15 02:25:48;;;;;;;3.97;2.57;;;;;;;19.40;100.00;100337.93;1714704;82;21070;-61
2021/08/15 02:28:15;;;;;;;5.37;2.47;;;;;;;19.41;100.00;100336.88;1718328;81;21179;-60
2021/08/15 02:30:41;;;;;;;4.10;2.17;;;;;;;19.44;100.00;100337.73;1714218;82;21090;-59
2021/08/15 02:33:08;;;;;;;3.60;2.30;;;;;;;19.46;100.00;100336.95;1714715;81;21308;-62
2021/08/15 02:35:35;;;;;;;3.40;2.17;;;;;;;19.42;100.00;100338.48;1714823;82;21059;-62
2021/08/15 02:38:03;;;;;;;5.63;2.43;;;;;;;19.38;100.00;100330.22;1716158;82;20999;-60
2021/08/15 02:40:30;;;;;;;3.67;2.27;;;;;;;19.38;100.00;100338.67;1715115;82;21381;-61
2021/08/15 02:42:56;;;;;;;3.73;2.07;;;;;;;19.32;100.00;100336.98;1713604;82;21022;-62
2021/08/15 02:45:24;;;;;;;3.37;2.17;;;;;;;19.38;100.00;100337.36;1714143;82;21093;-62
2021/08/15 02:47:52;;;;;;;4.00;2.47;;;;;;;19.39;100.00;100338.95;1715150;81;21058;-61
2021/08/15 02:50:19;;;;;;;7.73;2.43;;;;;;;19.37;100.00;100342.37;1713869;82;21145;-60
2021/08/15 02:52:45;;;;;;;3.90;2.30;;;;;;;19.32;100.00;100352.34;1716889;82;22428;-61
2021/08/15 02:55:13;;;;;;;3.63;2.33;;;;;;;19.26;100.00;100356.45;1712632;82;22527;-60
2021/08/15 02:57:40;;;;;;;3.43;2.40;;;;;;;19.31;100.00;100348.59;1717585;82;21020;-61
2021/08/15 03:00:13;;;;;;;4.30;2.65;;;;;;;19.25;100.00;100348.25;1717169;80;21048;31
2021/08/15 03:02:40;;;;;;;3.70;2.50;;;;;;;19.23;100.00;100350.31;1719874;81;21521;-62
2021/08/15 03:05:09;;;;;;;4.77;2.77;;;;;;;19.20;100.00;100347.61;1718424;81;21541;-61
2021/08/15 03:07:36;;;;;;;6.17;2.70;;;;;;;19.23;100.00;100343.70;1719050;81;21104;-62
2021/08/15 03:10:03;;;;;;;3.70;2.40;;;;;;;19.19;100.00;100352.10;1717472;81;21019;-58
2021/08/15 03:12:30;;;;;;;4.60;2.70;;;;;;;19.19;100.00;100344.70;1719427;82;21519;-61
2021/08/15 03:14:58;;;;;;;3.13;2.00;;;;;;;19.17;100.00;100344.15;1718368;81;21078;-61
2021/08/15 03:17:25;;;;;;;3.63;2.30;;;;;;;19.15;100.00;100341.73;1718369;82;21128;-61
2021/08/15 03:19:53;;;;;;;4.20;2.40;;;;;;;19.15;100.00;100336.44;1717795;82;20970;-61
2021/08/15 03:22:19;;;;;;;2.80;2.00;;;;;;;19.13;100.00;100333.25;1717050;82;20930;-58
2021/08/15 03:24:45;;;;;;;4.27;2.63;;;;;;;19.10;100.00;100334.24;1717564;81;22028;-61
2021/08/15 03:27:13;;;;;;;3.50;2.20;;;;;;;19.13;100.00;100328.45;1717442;81;21565;-61
2021/08/15 03:29:40;;;;;;;4.27;2.33;;;;;;;19.18;100.00;100335.97;1717643;82;21849;-61
2021/08/15 03:32:07;;;;;;;5.40;2.60;;;;;;;19.18;100.00;100338.61;1717733;81;21037;-61
2021/08/15 03:34:33;;;;;;;4.03;2.60;;;;;;;19.12;100.00;100340.88;1720198;81;20993;-59
2021/08/15 03:37:00;;;;;;;3.80;2.50;;;;;;;19.12;100.00;100336.91;1722622;81;20993;-58
2021/08/15 03:39:29;;;;;;;3.50;2.30;;;;;;;19.09;100.00;100341.38;1717475;82;21064;-61
2021/08/15 03:41:58;;;;;;;4.53;2.43;;;;;;;19.08;100.00;100339.75;1717674;82;22123;-62
2021/08/15 03:44:30;;;;;;;4.23;2.57;;;;;;;19.12;100.00;100342.72;1721562;81;20929;-61
2021/08/15 03:46:57;;;;;;;4.47;2.50;;;;;;;19.14;100.00;100347.27;1717674;82;21111;-61
2021/08/15 03:49:27;;;;;;;5.33;3.20;;;;;;;19.15;100.00;100349.66;1717444;82;21095;-62
2021/08/15 03:51:55;;;;;;;10.33;2.57;;;;;;;19.15;100.00;100345.69;1718494;82;20998;-61
2021/08/15 03:54:21;;;;;;;7.53;3.07;;;;;;;19.16;100.00;100347.28;1718167;82;21099;-61
2021/08/15 03:56:48;;;;;;;4.20;2.83;;;;;;;19.17;100.00;100347.59;1716512;82;20918;-59
2021/08/15 03:59:16;;;;;;;4.40;2.93;;;;;;;19.17;100.00;100346.27;1719639;81;21088;-62
2021/08/15 04:01:44;;;;;;;4.87;3.30;;;;;;;19.12;100.00;100351.44;1716325;81;21096;-61
2021/08/15 04:04:11;;;;;;;4.03;2.50;;;;;;;19.25;100.00;100348.25;1710441;81;21475;-62
2021/08/15 04:06:38;;;;;;;5.73;2.87;;;;;;;19.28;100.00;100346.42;1709141;81;21139;-59
2021/08/15 04:09:05;;;;;;;4.77;3.03;;;;;;;19.28;100.00;100340.64;1710599;81;22351;-62
2021/08/15 04:11:33;;;;;;;4.87;3.07;;;;;;;19.32;100.00;100340.45;1708753;82;21009;-62
2021/08/15 04:14:00;;;;;;;4.20;2.60;;;;;;;19.30;100.00;100341.72;1708672;83;20990;-61
2021/08/15 04:16:27;;;;;;;6.17;2.70;;;;;;;19.34;100.00;100348.13;1708937;83;21067;-58
2021/08/15 04:18:55;;;;;;;5.37;2.80;;;;;;;19.43;100.00;100346.69;1709039;81;21155;-61
2021/08/15 04:21:21;;;;;;;4.73;2.40;;;;;;;19.42;100.00;100348.53;1709109;81;20984;-61
2021/08/15 04:23:48;;;;;;;4.23;2.27;;;;;;;19.41;100.00;100340.85;1709577;81;21044;-61
2021/08/15 04:26:15;;;;;;;4.93;2.60;;;;;;;19.40;100.00;100351.95;1708860;81;20859;-62
2021/08/15 04:28:41;;;;;;;3.60;2.47;;;;;;;19.43;100.00;100358.58;1708959;81;20926;-58
2021/08/15 04:31:08;;;;;;;4.40;3.00;;;;;;;19.44;100.00;100355.72;1708962;81;21059;-61
2021/08/15 04:33:34;;;;;;;5.13;2.90;;;;;;;19.48;100.00;100355.24;1709738;81;20969;-60
2021/08/15 04:36:01;;;;;;;5.53;2.57;;;;;;;19.51;100.00;100343.67;1709729;82;20977;-62
2021/08/15 04:38:29;;;;;;;4.27;2.90;;;;;;;19.62;100.00;100345.96;1709305;81;20927;-61
2021/08/15 04:40:56;;;;;;;5.73;2.60;;;;;;;19.64;100.00;100346.02;1710476;81;21062;-59
2021/08/15 04:43:22;;;;;;;5.50;2.90;;;;;;;19.69;100.00;100346.08;1714070;81;21123;-61
2021/08/15 04:45:49;;;;;;;4.33;2.60;;;;;;;19.77;100.00;100341.44;1710394;81;20863;-61
2021/08/15 04:48:16;;;;;;;5.10;2.97;;;;;;;19.93;100.00;100332.70;1710133;82;21025;-61
2021/08/15 04:50:43;;;;;;;5.70;3.20;;;;;;;19.97;100.00;100334.34;1709606;81;21052;-61
2021/08/15 04:53:10;;;;;;;5.03;2.70;;;;;;;20.08;100.00;100340.06;1707562;83;21013;-61
2021/08/15 04:55:37;;;;;;;6.73;3.20;;;;;;;20.18;100.00;100340.97;1709036;83;21184;-61
2021/08/15 04:58:05;;;;;;;8.20;3.00;;;;;;;20.30;100.00;100340.06;1709476;82;20957;-61
2021/08/15 05:00:32;;;;;;;5.47;3.27;;;;;;;20.50;100.00;100329.78;1727577;82;20938;-61
2021/08/15 05:03:00;;;;;;;5.97;3.37;;;;;;;20.65;100.00;100326.51;1733446;81;21071;-59
2021/08/15 05:05:26;;;;;;;5.43;3.27;;;;;;;20.84;100.00;100333.60;1730179;82;20973;-62
2021/08/15 05:07:54;;;;;;;4.83;3.27;;;;;;;21.02;100.00;100335.09;1730441;81;21160;-61
2021/08/15 05:10:21;;;;;;;6.10;3.53;;;;;;;21.16;100.00;100330.20;1733757;82;20982;-61
2021/08/15 05:12:47;;;;;;;7.93;3.17;;;;;;;21.35;100.00;100330.12;1732059;81;21631;-61
2021/08/15 05:15:14;;;;;;;6.73;3.37;;;;;;;21.45;100.00;100322.27;1729455;82;21504;-62
2021/08/15 05:17:41;;;;;;;5.57;3.40;;;;;;;21.66;100.00;100324.53;1730962;81;21042;-62
2021/08/15 05:20:09;;;;;;;5.43;3.77;;;;;;;21.86;100.00;100312.75;1733877;81;21512;-62
2021/08/15 05:22:37;;;;;;;7.60;4.10;;;;;;;22.02;100.00;100314.95;1729531;82;20907;-62
2021/08/15 05:25:05;;;;;;;5.80;3.60;;;;;;;22.10;100.00;100314.46;1729926;81;20927;-59
2021/08/15 05:27:32;;;;;;;5.97;3.47;;;;;;;22.18;100.00;100314.53;1732384;81;20894;-62
2021/08/15 05:29:58;;;;;;;6.30;3.93;;;;;;;22.10;100.00;100314.46;1730237;82;21108;-61
2021/08/15 05:32:25;;;;;;;6.20;4.10;;;;;;;22.08;100.00;100307.80;1733553;81;22116;-62
2021/08/15 05:34:53;;;;;;;7.03;3.40;;;;;;;22.02;100.00;100312.30;1729814;82;21047;-62
2021/08/15 05:37:19;;;;;;;6.30;4.03;;;;;;;22.02;100.00;100311.50;1733476;81;20946;-59
2021/08/15 05:39:46;;;;;;;5.33;3.80;;;;;;;21.99;100.00;100306.17;1720378;82;20863;-63
2021/08/15 05:42:14;;;;;;;6.90;4.00;;;;;;;22.04;100.00;100304.86;1721162;81;21140;-63
2021/08/15 05:44:41;;;;;;;7.60;4.17;;;;;;;22.16;100.00;100306.55;1718991;82;21163;-62
2021/08/15 05:47:08;;;;;;;5.67;3.67;;;;;;;22.34;100.00;100302.11;1722797;82;21008;-61
2021/08/15 05:49:35;;;;;;;8.80;3.77;;;;;;;22.51;100.00;100292.09;1725077;81;21497;-62
2021/08/15 05:52:04;;;;;;;7.90;4.27;;;;;;;22.71;100.00;100293.20;1716771;81;21080;-62
2021/08/15 05:54:30;;;;;;;8.27;4.67;;;;;;;22.87;100.00;100294.82;1723725;82;21496;-60
2021/08/15 05:56:58;;;;;;;7.50;4.23;;;;;;;23.02;100.00;100285.56;1721688;81;21484;-60
2021/08/15 05:59:24;;;;;;;8.30;4.00;;;;;;;23.14;100.00;100284.51;1718332;82;20911;-59
2021/08/15 06:01:52;;;;;;;9.13;4.40;;;;;;;23.33;100.00;100278.92;1726123;81;20934;-60
2021/08/15 06:04:20;;;;;;;7.03;4.60;;;;;;;23.57;100.00;100278.39;1733818;82;20928;-61
2021/08/15 06:06:47;;;;;;;9.23;5.17;;;;;;;23.80;100.00;100276.50;1730629;81;21081;-60
2021/08/15 06:09:14;;;;;;;8.37;4.70;;;;;;;24.08;100.00;100276.41;1731804;81;21164;-61
2021/08/15 06:11:41;;;;;;;9.00;5.20;;;;;;;24.24;100.00;100267.81;1734300;81;21017;-59
2021/08/15 06:14:08;;;;;;;6.93;4.83;;;;;;;24.33;100.00;100270.19;1735727;81;21133;-60
2021/08/15 06:16:36;;;;;;;6.97;5.00;;;;;;;24.45;100.00;100271.22;1719124;82;20919;-60
2021/08/15 06:19:03;;;;;;;8.43;5.20;;;;;;;24.58;100.00;100261.27;1717180;82;21075;-60
2021/08/15 06:21:29;;;;;;;9.73;5.63;;;;;;;24.76;100.00;100267.28;1724738;82;21168;-60
2021/08/15 06:23:56;;;;;;;11.50;8.90;;;;;;;24.89;100.00;100260.55;1723113;82;21031;-59
2021/08/15 06:26:23;;;;;;;12.27;9.20;;;;;;;25.00;100.00;100254.06;1725535;82;21486;-61
2021/08/15 06:28:51;;;;;;;12.17;8.13;;;;;;;25.05;100.00;100263.89;1719987;82;21074;-61
2021/08/15 06:31:18;;;;;;;11.57;8.30;;;;;;;24.99;100.00;100260.45;1715449;82;21026;-59
2021/08/15 06:33:45;;;;;;;13.30;9.70;;;;;;;25.05;100.00;100259.89;1721834;82;21150;-60
2021/08/15 06:36:11;;;;;;;14.37;10.03;;;;;;;25.33;100.00;100257.00;1720435;82;21006;-61
2021/08/15 06:38:38;;;;;;;28.83;26.03;;;;;;;25.73;100.00;100256.34;1739825;82;21124;-60
2021/08/15 06:41:05;;;;;;;198.37;176.97;;;;;;;26.09;100.00;100257.29;1742796;81;20950;-60
2021/08/15 06:43:31;;;;;;;368.20;301.53;;;;;;;26.27;100.00;100255.73;1741539;81;20978;-60
2021/08/15 06:45:58;;;;;;;64.87;53.23;;;;;;;26.27;100.00;100251.18;1741239;81;21117;-60
2021/08/15 06:48:24;;;;;;;21.37;18.30;;;;;;;26.23;100.00;100256.84;1741726;81;20971;-61
2021/08/15 06:50:57;;;;;;;81.87;74.05;;;;;;;26.17;100.00;100251.30;1726572;81;21047;-61
2021/08/15 06:53:25;;;;;;;16.03;13.00;;;;;;;26.00;99.60;100259.02;1726787;81;21463;-59
2021/08/15 06:55:51;;;;;;;14.05;10.38;;;;;;;25.94;100.00;100253.71;1726636;81;21037;-61
2021/08/15 06:58:18;;;;;;;14.30;9.33;;;;;;;25.99;100.00;100242.71;1726608;81;21941;-59
2021/08/15 07:00:44;;;;;;;11.83;8.63;;;;;;;25.98;100.00;100248.59;1726249;81;21047;-61
2021/08/15 07:03:11;;;;;;;11.05;8.63;;;;;;;26.06;100.00;100247.17;1722308;81;21051;-61
2021/08/15 07:05:38;;;;;;;12.20;8.90;;;;;;;26.05;99.22;100251.72;1718822;81;21025;-59
2021/08/15 07:08:05;;;;;;;12.10;9.18;;;;;;;25.99;94.70;100244.05;1718644;81;20961;-60
2021/08/15 07:10:32;;;;;;;10.35;7.92;;;;;;;25.84;91.52;100248.52;1722391;81;21970;-59
2021/08/15 07:13:02;;;;;;;13.10;8.68;;;;;;;25.60;95.31;100249.80;1709388;81;20962;-59
2021/08/15 07:15:29;;;;;;;10.25;7.67;;;;;;;25.55;100.00;100241.06;1685180;83;21108;-61
2021/08/15 07:17:56;;;;;;;12.77;7.40;;;;;;;25.69;100.00;100237.97;1710891;81;21015;-62
2021/08/15 07:20:23;;;;;;;10.93;7.43;;;;;;;25.83;97.23;100240.22;1708654;83;21100;-61
2021/08/15 07:22:49;;;;;;;10.60;7.50;;;;;;;25.84;91.75;100237.83;1710405;81;22045;-60
2021/08/15 07:25:16;;;;;;;9.50;7.67;;;;;;;25.67;93.37;100242.25;1715290;81;21003;-62
2021/08/15 07:27:44;;;;;;;13.50;7.47;;;;;;;25.61;96.45;100246.58;1710022;81;21086;-62
2021/08/15 07:30:11;;;;;;;11.03;7.77;;;;;;;25.52;96.32;100244.28;1708946;83;21037;-63
2021/08/15 07:32:54;;;;;;;9.13;6.40;;;;;;;25.40;96.24;100246.80;1710752;81;21025;-61
2021/08/15 07:35:22;;;;;;;10.13;7.20;;;;;;;25.22;97.00;100242.16;1711514;81;21096;-62
2021/08/15 07:37:48;;;;;;;10.50;6.97;;;;;;;25.07;99.68;100244.94;1708361;83;21048;-59
2021/08/15 07:40:15;;;;;;;12.20;8.33;;;;;;;25.04;100.00;100247.64;1709771;81;21096;-61
2021/08/15 07:42:43;;;;;;;10.30;7.10;;;;;;;25.08;100.00;100246.00;1708873;83;21052;-62
2021/08/15 07:45:10;;;;;;;9.70;6.70;;;;;;;25.15;100.00;100236.35;1709922;82;20930;-61
2021/08/15 07:47:37;;;;;;;9.17;6.13;;;;;;;25.18;100.00;100241.92;1708376;83;21158;-59
2021/08/15 07:50:06;;;;;;;8.90;5.87;;;;;;;25.19;100.00;100250.72;1708633;81;21551;-61
2021/08/15 07:52:33;;;;;;;8.10;5.93;;;;;;;25.19;98.71;100242.20;1712171;81;20998;-62
2021/08/15 07:54:59;;;;;;;7.30;5.60;;;;;;;25.17;96.64;100252.89;1711464;81;21051;-62
2021/08/15 07:57:26;;;;;;;8.87;5.70;;;;;;;25.08;95.40;100252.67;1710034;81;20926;-59
2021/08/15 07:59:54;;;;;;;7.33;4.90;;;;;;;25.08;95.88;100257.19;1717301;81;21128;-61
2021/08/15 08:02:20;;;;;;;6.50;4.27;;;;;;;25.09;96.79;100252.12;1709641;81;21208;-62
2021/08/15 08:04:49;;;;;;;7.13;4.03;;;;;;;25.13;97.09;100261.98;1709807;83;20898;-63
2021/08/15 08:07:18;;;;;;;6.17;3.40;;;;;;;25.21;95.01;100251.25;1710082;81;20970;-62
2021/08/15 08:09:47;;;;;;;5.30;3.00;;;;;;;25.19;92.73;100255.55;1708795;82;20967;-60
2021/08/15 08:12:14;;;;;;;6.20;3.70;;;;;;;25.22;94.63;100257.63;1686199;83;22459;-61
2021/08/15 08:14:41;;;;;;;10.10;4.77;;;;;;;25.36;95.83;100263.11;1708507;81;21020;-60
2021/08/15 08:17:08;;;;;;;4.43;3.50;;;;;;;25.43;92.94;100264.13;1710882;81;20986;-62
2021/08/15 08:19:35;;;;;;;7.30;4.07;;;;;;;25.55;93.75;100257.07;1720817;81;21085;-58
2021/08/15 08:22:03;;;;;;;5.50;3.40;;;;;;;25.70;85.99;100262.25;1706656;81;21315;-59
2021/08/15 08:24:30;;;;;;;5.13;3.07;;;;;;;25.73;88.46;100264.36;1706097;83;21212;-60
2021/08/15 08:26:56;;;;;;;5.13;2.70;;;;;;;25.84;85.93;100264.53;1710395;81;20950;-59
2021/08/15 08:29:23;;;;;;;4.30;2.30;;;;;;;25.98;82.90;100261.16;1710251;82;20977;-60
2021/08/15 08:31:50;;;;;;;5.20;2.60;;;;;;;26.06;79.31;100261.86;1709792;83;21476;-58
2021/08/15 08:34:16;;;;;;;3.90;2.40;;;;;;;26.17;77.37;100256.65;1709535;83;20946;-60
2021/08/15 08:36:43;;;;;;;3.90;2.20;;;;;;;26.20;71.85;100252.07;1709851;82;21125;-59
2021/08/15 08:39:09;;;;;;;3.43;2.30;;;;;;;26.06;73.01;100249.84;1710148;81;20942;-59
2021/08/15 08:41:38;;;;;;;5.40;2.77;;;;;;;26.02;73.41;100247.48;1708630;81;21096;-60
2021/08/15 08:44:06;;;;;;;3.40;2.20;;;;;;;26.13;71.14;100247.08;1707503;81;21076;-61
2021/08/15 08:46:34;;;;;;;5.67;2.10;;;;;;;26.14;73.11;100247.34;1707618;83;21091;-61
2021/08/15 08:49:00;;;;;;;5.37;2.27;;;;;;;26.28;68.51;100246.08;1707645;83;21133;-62
2021/08/15 08:51:28;;;;;;;3.57;2.20;;;;;;;26.40;67.54;100245.14;1709515;81;38399;-62
2021/08/15 08:53:55;;;;;;;4.30;2.50;;;;;;;26.47;68.53;100242.11;1710491;83;21120;-59
2021/08/15 08:56:22;;;;;;;4.05;2.45;;;;;;;26.50;66.11;100245.55;1716254;81;21002;-62
2021/08/15 08:58:51;;;;;;;3.95;2.27;;;;;;;26.49;66.36;100245.30;1712758;81;21956;-62
2021/08/15 09:01:17;;;;;;;6.50;2.33;;;;;;;26.55;63.50;100248.68;1712645;81;21158;-62
2021/08/15 09:03:45;;;;;;;3.95;2.12;;;;;;;26.62;65.56;100245.89;1719859;81;21050;-62
2021/08/15 09:06:21;;;;;;;4.23;2.40;;;;;;;26.73;65.17;100241.20;1718422;81;21553;-59
2021/08/15 09:08:49;;;;;;;5.45;2.40;;;;;;;26.81;64.47;100243.20;1719616;81;21382;-61
2021/08/15 09:11:24;;;;;;;3.42;1.85;;;;;;;26.85;66.62;100244.75;1722218;81;20997;-60
2021/08/15 09:14:08;;;;;;;3.17;1.80;;;;;;;26.90;64.00;100240.13;1718957;81;21590;-61
2021/08/15 09:16:58;;;;;;;2.87;1.65;;;;;;;26.90;62.21;100242.81;1727900;81;21021;-60
2021/08/15 09:19:38;;;;;;;3.75;1.90;;;;;;;26.90;63.01;100237.45;1721551;81;21109;-59
2021/08/15 09:22:22;;;;;;;3.10;1.90;;;;;;;26.91;62.75;100233.69;1715640;81;21008;-59
2021/08/15 09:25:00;;;;;;;4.22;2.20;;;;;;;26.91;65.12;100239.04;1718161;81;20977;-60
2021/08/15 09:27:47;;;;;;;3.30;2.15;;;;;;;26.88;66.37;100232.93;1717267;81;21614;-59
2021/08/15 09:30:22;;;;;;;6.83;2.60;;;;;;;26.84;67.35;100239.16;1717582;81;21463;-61
2021/08/15 09:32:58;;;;;;;3.50;2.52;;;;;;;26.79;66.72;100232.02;1719740;81;21479;-59
2021/08/15 09:35:38;;;;;;;4.50;2.55;;;;;;;26.71;66.62;100239.38;1718889;81;20972;-61
2021/08/15 09:38:15;;;;;;;4.45;2.55;;;;;;;26.56;67.42;100232.38;1719380;81;21092;-63
2021/08/15 09:40:50;;;;;;;4.67;2.95;;;;;;;26.36;71.25;100233.41;1717925;82;22376;-62
2021/08/15 09:43:22;;;;;;;4.90;3.07;;;;;;;26.20;72.45;100236.83;1716523;82;20978;-62
2021/08/15 09:45:53;;;;;;;4.83;3.03;;;;;;;26.08;74.66;100231.66;1719738;81;21083;-62
2021/08/15 09:48:28;;;;;;;5.60;2.90;;;;;;;25.98;75.97;100233.12;1717856;81;21481;-62
2021/08/15 09:51:21;;;;;;;5.90;2.87;;;;;;;25.86;78.98;100234.32;1717775;82;20978;-63
2021/08/15 09:53:58;;;;;;;5.17;2.97;;;;;;;25.77;75.56;100230.67;1715386;82;21343;-59
2021/08/15 09:56:38;;;;;;;6.70;3.67;;;;;;;25.65;82.72;100227.61;1715559;82;20970;-61
2021/08/15 09:59:13;;;;;;;4.37;3.05;;;;;;;25.60;84.24;100228.98;1720066;81;21036;-63
2021/08/15 10:01:47;;;;;;;3.67;2.67;;;;;;;25.59;84.32;100232.73;1717900;81;21017;-60
2021/08/15 10:04:14;;;;;;;6.13;3.00;;;;;;;25.57;84.34;100236.22;1712260;82;20953;-62
2021/08/15 10:06:42;;;;;;;5.40;3.20;;;;;;;25.59;87.08;100234.07;1708664;83;21151;-60
2021/08/15 10:09:09;;;;;;;8.50;3.70;;;;;;;25.53;87.75;100231.98;1709071;81;20887;-61
2021/08/15 10:11:37;;;;;;;8.00;3.50;;;;;;;25.53;92.30;100226.64;1708753;83;21145;-61
2021/08/15 10:14:07;;;;;;;4.30;3.27;;;;;;;25.60;91.46;100232.44;1707203;83;20930;-59
2021/08/15 10:16:42;;;;;;;7.67;3.33;;;;;;;25.67;94.30;100232.11;1708625;83;21112;-61
2021/08/15 10:19:12;;;;;;;9.47;3.77;;;;;;;25.71;93.81;100229.12;1708500;82;20929;-61
2021/08/15 10:21:46;;;;;;;5.50;3.90;;;;;;;25.75;93.61;100230.14;1709613;81;20918;-61
2021/08/15 10:24:14;;;;;;;6.03;3.60;;;;;;;25.80;92.63;100224.80;1712414;81;21359;-62
2021/08/15 10:26:49;;;;;;;6.63;4.10;;;;;;;25.83;90.43;100227.41;1711355;82;21040;-60
2021/08/15 10:29:41;;;;;;;5.70;3.37;;;;;;;25.82;89.64;100225.29;1711191;82;21023;-62
2021/08/15 10:32:21;;;;;;;9.63;3.80;;;;;;;25.79;92.96;100225.06;1710643;82;21867;-62
2021/08/15 10:34:54;;;;;;;7.92;3.95;;;;;;;25.70;98.08;100227.55;1709603;82;21112;-62
2021/08/15 10:37:32;;;;;;;6.40;4.07;;;;;;;25.75;99.67;100227.48;1709634;82;21017;-60
2021/08/15 10:40:03;;;;;;;5.83;4.00;;;;;;;25.88;99.97;100222.83;1713997;81;21078;-59
2021/08/15 10:42:45;;;;;;;6.10;4.40;;;;;;;25.92;100.00;100222.51;1713208;81;21851;-60
2021/08/15 10:45:22;;;;;;;7.13;4.70;;;;;;;26.01;98.78;100220.53;1711101;83;21176;-62
2021/08/15 10:48:14;;;;;;;9.33;5.20;;;;;;;26.09;97.96;100214.55;1711322;81;20866;-60
2021/08/15 10:50:56;;;;;;;9.27;4.77;;;;;;;26.19;97.69;100211.75;1718915;81;21005;-59
2021/08/15 10:53:30;;;;;;;9.20;5.33;;;;;;;26.22;99.62;100219.20;1710212;81;21621;-61
2021/08/15 10:56:06;;;;;;;8.47;5.67;;;;;;;26.21;98.41;100214.91;1715731;81;21061;-59
2021/08/15 10:58:50;;;;;;;9.67;6.80;;;;;;;26.25;100.00;100213.25;1710633;81;21132;-60
2021/08/15 11:01:20;;;;;;;9.33;6.07;;;;;;;26.29;99.64;100219.63;1709107;81;21322;-60
2021/08/15 11:03:51;;;;;;;10.25;6.75;;;;;;;26.31;100.00;100216.11;1687435;81;20905;-60
2021/08/15 11:06:36;;;;;;;10.67;7.13;;;;;;;26.29;100.00;100220.15;1728835;81;20964;-60
2021/08/15 11:09:05;;;;;;;10.17;6.47;;;;;;;26.22;100.00;100214.39;1715011;81;21013;-60
2021/08/15 11:11:36;;;;;;;11.47;7.10;;;;;;;26.01;100.00;100211.97;1730538;81;22678;-59
2021/08/15 11:14:25;;;;;;;12.00;8.10;;;;;;;25.81;100.00;100214.36;1726334;81;21494;-59
2021/08/15 11:17:11;;;;;;;12.67;7.83;;;;;;;25.59;100.00;100220.19;1729553;81;20985;-59
2021/08/15 11:19:38;;;;;;;10.80;7.13;;;;;;;25.31;100.00;100218.36;1727569;81;21048;-59
2021/08/15 11:22:19;;;;;;;9.77;7.30;;;;;;;24.91;100.00;100221.06;1727965;81;21479;-58
2021/08/15 11:24:57;;;;;;;9.93;6.87;;;;;;;24.70;100.00;100223.61;1727673;81;21158;-59
2021/08/15 11:27:40;;;;;;;10.07;7.37;;;;;;;24.57;100.00;100233.57;1726594;81;21537;-58